Flugplatz Ingolstadt Manching Airport

Bericht für ETSI

vom 25.10. um 16:20 UTC

kein Wind

Sichtweite 10 km oder mehr

gering bewölkt in 14000 ft

aufgebrochene Bewölkung in 20000 ft

Temperatur 7.0°C

Taupunkt 5.0°C

Luftfeuchtigkeit 87%

Luftdruck 1021 hPa

ETSI 251620Z 00000KT 9999 FEW140 BKN200 07/05 Q1021 BLU+

Prognose für ETSI

vom 25.10. um 13:00 UTC

Zwischen 14:00 UTC und 17:00 UTC

Wind 3 kt aus 70°

Sichtweite 10 km oder mehr

keine signifikanten Wettererscheinungen

aufgelockert bewölkt in 16000 ft

aufgebrochene Bewölkung in 19000 ft


Zwischen 17:00 und 19:00 UTC übergehend zu

variable Windrichtung mit 2 kt

Sichtweite 3000 m

Nebelschwaden

aufgelockert bewölkt in 100 ft


Zwischen 19:00 und 21:00 UTC übergehend zu

variable Windrichtung mit 2 kt

Sichtweite 400 m

Nebel

TAF ETSI 251300Z 2514/2523 07003KT 9999 NSW SCT160 BKN190 BECMG 2517/2519 VRB02KT 3000 BCFG SCT001 BECMG 2519/2521 VRB02KT 0400 FG VV001
Impressum